Time;durP1;ratioP1;P1;durP2;ratioP2;P2;SDS_P1;SDS_P2;PMS_P1;PMS_P2;Temp;Humidity;BMP_temperature;BMP_pressure;BME280_temperature;BME280_humidity;BME280_pressure;Samples;Min_cycle;Max_cycle;Signal;HPM_P1;HPM_P2
2021/05/22 00:02:06;;;;;;;2.63;1.10;;;12.20;64.90;;;;;;5030414;28;20086;-87
2021/05/22 00:04:32;;;;;;;6.03;1.70;;;12.20;64.90;;;;;;5024213;28;20088;-87
2021/05/22 00:06:57;;;;;;;3.67;1.30;;;12.20;65.30;;;;;;5004758;28;20022;-87
2021/05/22 00:09:23;;;;;;;2.80;1.40;;;12.20;65.20;;;;;;5016931;28;20033;-88
2021/05/22 00:11:49;;;;;;;4.00;1.45;;;12.20;65.50;;;;;;5029715;28;20119;-86
2021/05/22 00:14:14;;;;;;;3.60;1.30;;;12.20;65.50;;;;;;5025468;28;20030;-87
2021/05/22 00:16:40;;;;;;;3.72;1.30;;;12.20;65.50;;;;;;5011961;28;20036;-87
2021/05/22 00:19:05;;;;;;;4.78;1.35;;;12.20;65.70;;;;;;5023090;28;20013;-87
2021/05/22 00:21:31;;;;;;;4.45;1.67;;;12.10;65.60;;;;;;5025760;28;20013;-86
2021/05/22 00:23:56;;;;;;;5.25;1.45;;;12.10;65.80;;;;;;5013919;28;20017;-87
2021/05/22 00:26:22;;;;;;;4.07;1.50;;;12.10;65.80;;;;;;5027227;28;20112;-86
2021/05/22 00:28:47;;;;;;;4.85;1.80;;;12.10;65.80;;;;;;5020994;28;20021;-85
2021/05/22 00:31:13;;;;;;;5.40;1.73;;;12.10;65.70;;;;;;5020617;28;20029;-88
2021/05/22 00:33:38;;;;;;;3.75;1.40;;;12.10;65.60;;;;;;5005910;28;20034;-84
2021/05/22 00:36:04;;;;;;;3.60;1.05;;;12.10;65.60;;;;;;5019658;28;20524;-86
2021/05/22 00:38:30;;;;;;;3.97;1.17;;;12.10;65.50;;;;;;4999398;28;20492;-87
2021/05/22 00:40:56;;;;;;;2.88;1.20;;;12.10;65.40;;;;;;5019927;28;20106;-87
2021/05/22 00:43:21;;;;;;;3.80;1.77;;;12.10;65.10;;;;;;5020986;28;20030;-87
2021/05/22 00:45:48;;;;;;;4.78;1.52;;;12.10;65.20;;;;;;5017764;28;20068;-85
2021/05/22 00:48:14;;;;;;;3.05;1.50;;;12.00;65.00;;;;;;4999772;28;20076;-85
2021/05/22 00:50:43;;;;;;;3.22;1.60;;;12.00;64.80;;;;;;5018792;28;20029;-85
2021/05/22 00:53:10;;;;;;;4.88;1.52;;;12.10;65.30;;;;;;5000243;28;20079;-85
2021/05/22 00:55:35;;;;;;;6.75;1.40;;;12.00;64.70;;;;;;5020341;28;20026;-84
2021/05/22 00:58:03;;;;;;;4.03;1.80;;;12.00;64.60;;;;;;5000670;28;20076;-88
2021/05/22 01:00:50;;;;;;;3.95;1.35;;;12.00;64.60;;;;;;5016892;28;20033;-86
2021/05/22 01:03:18;;;;;;;4.82;1.40;;;12.00;64.60;;;;;;5017174;28;20032;-89
2021/05/22 01:05:44;;;;;;;5.28;1.45;;;12.00;64.40;;;;;;5021206;28;20464;-88
2021/05/22 01:08:21;;;;;;;4.55;1.40;;;12.00;64.40;;;;;;5018498;28;20061;-87
2021/05/22 01:11:00;;;;;;;5.68;1.35;;;12.00;64.40;;;;;;5022849;28;20464;-87
2021/05/22 01:13:30;;;;;;;5.43;1.60;;;12.00;64.40;;;;;;5019446;28;20026;-88
2021/05/22 01:15:57;;;;;;;5.32;1.48;;;12.00;64.20;;;;;;5020407;28;20320;-86
2021/05/22 01:18:24;;;;;;;4.25;1.40;;;12.00;64.30;;;;;;5018344;28;20132;-87
2021/05/22 01:20:57;;;;;;;4.82;1.40;;;12.10;64.20;;;;;;5022061;28;20042;-88
2021/05/22 01:23:40;;;;;;;5.50;1.60;;;12.10;64.20;;;;;;5015454;28;20068;-87
2021/05/22 01:26:07;;;;;;;6.90;1.55;;;12.10;64.00;;;;;;5016708;28;20024;-86
2021/05/22 01:28:34;;;;;;;6.07;1.40;;;12.00;63.80;;;;;;5010800;28;20541;-86
2021/05/22 01:31:01;;;;;;;6.20;1.35;;;12.00;63.90;;;;;;5032958;28;20022;-89
2021/05/22 01:33:27;;;;;;;4.82;1.35;;;12.00;63.90;;;;;;5017290;28;20064;-89
2021/05/22 01:35:53;;;;;;;4.95;1.25;;;12.00;64.00;;;;;;5029681;28;20036;-87
2021/05/22 01:38:19;;;;;;;4.00;1.48;;;12.00;63.80;;;;;;5020273;28;20021;-87
2021/05/22 01:40:45;;;;;;;4.18;1.38;;;12.00;63.80;;;;;;5014976;28;20025;-88
2021/05/22 01:43:11;;;;;;;3.38;1.00;;;12.00;63.80;;;;;;5030822;28;20455;-89
2021/05/22 01:45:41;;;;;;;5.00;1.17;;;12.00;63.80;;;;;;5017097;28;20101;-89
2021/05/22 01:48:10;;;;;;;4.70;1.33;;;12.00;63.80;;;;;;5009870;28;20045;-90
2021/05/22 01:50:40;;;;;;;3.45;1.15;;;12.00;63.90;;;;;;5033748;28;20021;-88
2021/05/22 01:53:08;;;;;;;2.47;0.93;;;12.00;63.90;;;;;;5015467;28;20026;-89
2021/05/22 01:55:39;;;;;;;4.20;1.33;;;12.00;63.90;;;;;;5014713;28;20037;-89
2021/05/22 01:58:06;;;;;;;3.08;1.30;;;12.00;63.90;;;;;;5021039;28;20028;-90
2021/05/22 02:00:31;;;;;;;3.20;1.50;;;12.00;63.90;;;;;;5014644;28;20464;-89
2021/05/22 02:03:16;;;;;;;3.42;1.30;;;12.00;64.00;;;;;;5003655;28;20088;-88
2021/05/22 02:05:46;;;;;;;3.67;1.30;;;12.00;64.10;;;;;;4997964;28;20022;-88
2021/05/22 02:08:16;;;;;;;3.17;1.00;;;12.00;64.20;;;;;;5032880;28;20110;-89
2021/05/22 02:10:42;;;;;;;4.47;1.40;;;12.00;64.30;;;;;;5034267;28;20017;-88
2021/05/22 02:13:08;;;;;;;5.03;1.70;;;12.00;64.40;;;;;;5031427;28;20025;-88
2021/05/22 02:15:36;;;;;;;4.32;1.60;;;12.00;64.60;;;;;;5014107;28;20025;-86
2021/05/22 02:18:04;;;;;;;3.05;1.40;;;12.00;64.70;;;;;;5015249;28;20492;-87
2021/05/22 02:20:30;;;;;;;2.30;1.00;;;12.00;64.70;;;;;;4997804;28;20129;-89
2021/05/22 02:22:56;;;;;;;3.78;1.50;;;12.00;64.70;;;;;;5031796;28;20021;-86
2021/05/22 02:25:22;;;;;;;4.20;1.40;;;12.00;64.70;;;;;;5032745;28;20108;-87
2021/05/22 02:27:48;;;;;;;3.90;1.27;;;12.00;64.80;;;;;;5032352;28;20056;-87
2021/05/22 02:30:17;;;;;;;4.68;1.40;;;12.00;64.90;;;;;;5032143;28;20040;-88
2021/05/22 02:32:45;;;;;;;5.10;1.40;;;11.90;64.90;;;;;;5036388;28;20115;-87
2021/05/22 02:35:12;;;;;;;4.35;1.75;;;11.90;64.90;;;;;;5024747;28;20095;-87
2021/05/22 02:37:39;;;;;;;3.00;1.40;;;11.90;65.10;;;;;;5013942;28;20026;-86
2021/05/22 02:40:13;;;;;;;4.53;1.27;;;11.90;65.10;;;;;;5024645;28;20056;-88
2021/05/22 02:42:47;;;;;;;2.67;1.10;;;11.80;65.30;;;;;;5009986;28;20030;-87
2021/05/22 02:45:14;;;;;;;2.40;0.90;;;11.80;65.40;;;;;;5023967;28;20022;-88
2021/05/22 02:47:42;;;;;;;4.45;1.30;;;11.80;65.60;;;;;;5022786;28;20064;-87
2021/05/22 02:50:10;;;;;;;2.67;1.30;;;11.80;65.80;;;;;;4995394;28;20395;-87
2021/05/22 02:52:38;;;;;;;3.92;1.10;;;11.80;65.90;;;;;;4999003;28;20071;-87
2021/05/22 02:55:06;;;;;;;3.90;1.05;;;11.80;66.10;;;;;;5021853;28;20415;-88
2021/05/22 02:57:33;;;;;;;2.05;0.95;;;11.80;66.20;;;;;;4995955;28;20077;-87
2021/05/22 02:59:59;;;;;;;2.67;1.20;;;11.80;66.20;;;;;;5013505;28;20022;-87
2021/05/22 03:02:25;;;;;;;2.05;1.00;;;11.70;66.40;;;;;;5017794;28;20029;-87
2021/05/22 03:04:51;;;;;;;4.07;1.40;;;11.80;66.50;;;;;;5019070;28;20025;-88
2021/05/22 03:07:18;;;;;;;5.18;1.50;;;11.80;66.50;;;;;;5030038;28;20036;-87
2021/05/22 03:09:45;;;;;;;2.45;1.13;;;11.70;66.60;;;;;;4997002;28;20460;-87
2021/05/22 03:12:17;;;;;;;6.22;1.30;;;11.70;66.60;;;;;;5017919;28;20111;-88
2021/05/22 03:14:43;;;;;;;2.72;1.13;;;11.70;66.80;;;;;;4998598;28;20075;-87
2021/05/22 03:17:09;;;;;;;3.95;1.40;;;11.70;66.90;;;;;;5013572;28;20030;-90
2021/05/22 03:19:34;;;;;;;4.78;1.50;;;11.70;66.90;;;;;;4995014;28;20087;-89
2021/05/22 03:22:00;;;;;;;4.25;1.35;;;11.70;67.20;;;;;;5013144;28;20030;-90
2021/05/22 03:24:25;;;;;;;2.47;1.10;;;11.70;67.40;;;;;;5022931;28;20029;-87
2021/05/22 03:26:52;;;;;;;4.95;1.20;;;11.70;67.50;;;;;;5032712;28;20097;-89
2021/05/22 03:29:17;;;;;;;4.90;1.45;;;11.70;67.50;;;;;;5006290;28;20129;-89
2021/05/22 03:31:43;;;;;;;2.00;1.08;;;11.70;67.40;;;;;;5025166;28;20136;-88
2021/05/22 03:34:08;;;;;;;4.13;1.13;;;11.70;67.30;;;;;;5032237;28;20027;-88
2021/05/22 03:36:34;;;;;;;5.05;1.20;;;11.70;67.10;;;;;;5017675;28;20028;-88
2021/05/22 03:38:59;;;;;;;2.47;1.00;;;11.70;67.10;;;;;;5031900;28;20022;-88
2021/05/22 03:41:25;;;;;;;5.30;1.30;;;11.80;67.00;;;;;;5031374;28;20030;-87
2021/05/22 03:43:51;;;;;;;4.30;1.10;;;11.80;66.90;;;;;;5019993;28;20022;-86
2021/05/22 03:46:16;;;;;;;4.68;1.13;;;11.80;66.80;;;;;;5024554;28;20049;-88
2021/05/22 03:48:42;;;;;;;2.58;0.90;;;11.80;66.70;;;;;;5024584;28;20029;-89
2021/05/22 03:51:07;;;;;;;4.95;1.40;;;11.80;66.60;;;;;;5030072;28;20041;-89
2021/05/22 03:53:33;;;;;;;3.83;1.00;;;11.80;66.80;;;;;;5027556;28;20017;-87
2021/05/22 03:55:58;;;;;;;3.80;0.98;;;11.80;66.90;;;;;;5003740;28;20028;-93
2021/05/22 03:58:24;;;;;;;3.50;1.10;;;11.90;67.00;;;;;;5002653;28;20022;-88
2021/05/22 04:00:50;;;;;;;3.13;0.93;;;11.80;66.90;;;;;;5033619;28;20060;-89
2021/05/22 04:03:15;;;;;;;3.28;1.20;;;11.90;66.80;;;;;;5033679;28;20041;-90
2021/05/22 04:05:41;;;;;;;3.35;1.00;;;11.90;66.90;;;;;;5029009;28;20033;-88
2021/05/22 04:08:06;;;;;;;3.20;1.30;;;11.90;66.90;;;;;;5014610;28;20029;-89
2021/05/22 04:10:32;;;;;;;4.38;1.50;;;11.90;67.00;;;;;;5014084;28;20116;-90
2021/05/22 04:12:58;;;;;;;3.30;1.02;;;11.90;67.20;;;;;;5017457;28;20020;-90
2021/05/22 04:15:23;;;;;;;3.33;1.15;;;11.90;67.30;;;;;;5030801;28;20156;-88
2021/05/22 04:17:49;;;;;;;3.95;1.10;;;11.90;67.20;;;;;;5011978;28;20388;-89
2021/05/22 04:20:15;;;;;;;3.83;1.20;;;11.80;67.40;;;;;;5012222;28;20030;-89
2021/05/22 04:22:40;;;;;;;3.00;1.00;;;11.90;67.40;;;;;;5030821;28;20033;-89
2021/05/22 04:25:06;;;;;;;1.63;0.80;;;11.90;67.20;;;;;;5032649;28;20036;-91
2021/05/22 04:27:32;;;;;;;4.20;1.33;;;12.00;67.20;;;;;;5027316;28;20171;-88
2021/05/22 04:29:57;;;;;;;3.00;1.10;;;11.90;67.20;;;;;;5047042;28;20108;-89
2021/05/22 04:32:23;;;;;;;3.05;1.05;;;11.90;67.30;;;;;;5051854;28;20040;-90
2021/05/22 04:34:49;;;;;;;3.55;0.90;;;11.90;67.40;;;;;;5035278;28;20028;-90
2021/05/22 04:37:14;;;;;;;5.55;1.50;;;11.90;67.50;;;;;;5018292;28;20030;-89
2021/05/22 04:39:40;;;;;;;3.45;1.17;;;12.00;68.10;;;;;;5024998;28;20040;-87
2021/05/22 04:42:06;;;;;;;3.58;1.00;;;11.90;68.40;;;;;;5031369;28;20036;-89
2021/05/22 04:44:32;;;;;;;3.03;1.02;;;11.90;68.70;;;;;;5035144;28;20391;-88
2021/05/22 04:46:57;;;;;;;5.28;1.50;;;11.90;68.80;;;;;;5020668;28;20440;-88
2021/05/22 04:49:23;;;;;;;2.88;1.08;;;11.80;69.10;;;;;;5034592;28;20105;-90
2021/05/22 04:51:48;;;;;;;4.40;1.30;;;11.70;69.40;;;;;;5034402;28;20070;-88
2021/05/22 04:54:17;;;;;;;3.10;0.98;;;11.70;69.80;;;;;;5023675;28;20022;-88
2021/05/22 04:56:42;;;;;;;3.83;1.42;;;11.70;70.10;;;;;;5005827;28;20439;-88
2021/05/22 04:59:08;;;;;;;4.10;1.35;;;11.60;70.60;;;;;;5021417;28;20010;-87
2021/05/22 05:01:34;;;;;;;5.97;1.40;;;11.60;71.80;;;;;;5030918;28;20022;-87
2021/05/22 05:03:59;;;;;;;4.30;1.30;;;11.50;72.00;;;;;;5013029;28;20505;-88
2021/05/22 05:06:25;;;;;;;4.60;1.40;;;11.40;72.20;;;;;;5019791;28;20029;-88
2021/05/22 05:08:51;;;;;;;5.30;1.50;;;11.40;72.70;;;;;;4997045;28;20014;-87
2021/05/22 05:11:17;;;;;;;3.92;1.52;;;11.40;73.30;;;;;;5031507;28;20045;-87
2021/05/22 05:13:42;;;;;;;4.43;1.70;;;11.30;73.30;;;;;;5017395;28;20024;-88
2021/05/22 05:16:08;;;;;;;3.92;1.40;;;11.40;73.90;;;;;;5048059;28;20472;-87
2021/05/22 05:18:34;;;;;;;5.45;1.90;;;11.30;74.20;;;;;;5029144;28;20543;-87
2021/05/22 05:20:59;;;;;;;4.03;1.23;;;11.20;74.30;;;;;;5011438;28;20030;-88
2021/05/22 05:23:25;;;;;;;6.72;1.40;;;11.30;74.20;;;;;;5019035;28;20049;-90
2021/05/22 05:25:54;;;;;;;5.65;1.90;;;11.20;74.40;;;;;;5028301;28;20025;-90
2021/05/22 05:28:20;;;;;;;5.03;1.42;;;11.30;74.90;;;;;;5051473;28;20513;-89
2021/05/22 05:30:46;;;;;;;2.90;1.20;;;11.20;75.20;;;;;;5020853;28;20033;-90
2021/05/22 05:33:11;;;;;;;4.10;1.40;;;11.20;75.10;;;;;;5002685;28;20033;-90
2021/05/22 05:35:37;;;;;;;3.85;1.40;;;11.20;75.40;;;;;;4995521;28;20033;-87
2021/05/22 05:38:03;;;;;;;8.40;2.33;;;11.20;75.60;;;;;;5014338;28;20025;-87
2021/05/22 05:40:28;;;;;;;4.20;1.52;;;11.20;76.20;;;;;;5020555;28;20104;-85
2021/05/22 05:42:55;;;;;;;3.50;1.50;;;11.20;76.10;;;;;;5009000;28;20029;-86
2021/05/22 05:45:20;;;;;;;6.25;1.90;;;11.10;76.40;;;;;;5003263;28;20010;-86
2021/05/22 05:47:46;;;;;;;3.47;1.33;;;11.10;76.80;;;;;;5031466;28;20446;-86
2021/05/22 05:50:12;;;;;;;4.57;1.40;;;11.10;76.80;;;;;;5043384;28;20096;-85
2021/05/22 05:52:37;;;;;;;5.25;1.50;;;11.10;76.80;;;;;;5022234;28;20068;-86
2021/05/22 05:55:03;;;;;;;4.57;1.88;;;11.20;76.80;;;;;;5028455;28;20381;-87
2021/05/22 05:57:29;;;;;;;6.93;1.95;;;11.20;77.00;;;;;;5010009;28;20492;-87
2021/05/22 05:59:55;;;;;;;7.28;1.88;;;11.10;77.70;;;;;;5023567;28;20017;-85
2021/05/22 06:02:20;;;;;;;4.65;1.77;;;11.10;77.70;;;;;;5005839;28;20050;-87
2021/05/22 06:04:46;;;;;;;5.45;1.50;;;11.10;78.00;;;;;;5017144;28;20464;-86
2021/05/22 06:07:11;;;;;;;6.68;1.73;;;11.10;78.40;;;;;;5022137;28;20076;-86
2021/05/22 06:09:37;;;;;;;4.20;1.20;;;11.00;78.40;;;;;;5020322;28;20116;-86
2021/05/22 06:12:03;;;;;;;4.32;1.40;;;11.10;78.40;;;;;;5011617;28;20117;-85
2021/05/22 06:14:35;;;;;;;4.63;1.45;;;11.10;78.60;;;;;;5026088;28;20093;-86
2021/05/22 06:17:00;;;;;;;7.45;2.15;;;11.10;78.70;;;;;;5032293;28;20048;-85
2021/05/22 06:19:26;;;;;;;7.72;1.58;;;11.00;79.00;;;;;;5023950;28;20026;-87
2021/05/22 06:21:51;;;;;;;4.10;1.42;;;11.00;79.20;;;;;;5026411;28;20556;-86
2021/05/22 06:24:17;;;;;;;5.47;1.60;;;11.00;79.10;;;;;;5019673;28;20022;-85
2021/05/22 06:26:43;;;;;;;4.80;1.77;;;11.10;79.30;;;;;;5006856;28;20037;-87
2021/05/22 06:29:09;;;;;;;5.10;1.67;;;11.10;79.40;;;;;;5023394;28;20026;-87
2021/05/22 06:31:34;;;;;;;4.35;1.60;;;11.00;79.60;;;;;;5027246;28;20045;-87
2021/05/22 06:34:00;;;;;;;5.10;1.50;;;11.10;79.60;;;;;;5000103;28;20361;-87
2021/05/22 06:36:28;;;;;;;3.63;1.27;;;11.00;79.80;;;;;;5023206;28;20061;-86
2021/05/22 06:38:54;;;;;;;4.57;1.60;;;11.10;80.00;;;;;;5017334;28;20117;-87
2021/05/22 06:41:20;;;;;;;4.65;1.83;;;11.10;79.90;;;;;;5015444;28;20041;-86
2021/05/22 06:43:46;;;;;;;4.25;1.83;;;11.10;80.40;;;;;;4998007;28;20014;-85
2021/05/22 06:48:37;;;;;;;4.90;1.35;;;11.00;80.60;;;;;;5023304;28;20029;-89
2021/05/22 06:51:03;;;;;;;5.63;1.85;;;11.00;80.70;;;;;;5004471;28;20036;-88
2021/05/22 06:53:30;;;;;;;3.08;1.10;;;11.00;80.90;;;;;;5021999;28;20029;-84
2021/05/22 06:55:56;;;;;;;5.13;1.60;;;11.00;80.90;;;;;;5037922;28;20025;-90
2021/05/22 06:58:21;;;;;;;5.50;1.90;;;11.10;80.80;;;;;;5030116;28;20021;-94
2021/05/22 07:00:47;;;;;;;3.83;1.50;;;11.10;81.00;;;;;;5032022;28;20101;-94
2021/05/22 07:03:14;;;;;;;3.72;1.40;;;11.10;81.00;;;;;;5021763;28;20080;-91
2021/05/22 07:05:39;;;;;;;2.85;1.20;;;11.10;81.00;;;;;;5015282;28;20031;-91
2021/05/22 07:08:05;;;;;;;4.05;1.60;;;11.20;80.80;;;;;;5020874;28;20101;-91
2021/05/22 07:10:31;;;;;;;3.92;1.75;;;11.20;80.80;;;;;;5034256;28;20357;-92
2021/05/22 07:12:57;;;;;;;4.80;1.30;;;11.20;80.90;;;;;;5012235;28;20041;-91
2021/05/22 07:15:23;;;;;;;5.05;1.55;;;11.20;80.80;;;;;;5008840;28;20096;-91
2021/05/22 07:17:48;;;;;;;2.78;1.20;;;11.20;81.10;;;;;;5025616;28;20392;-88
2021/05/22 07:20:14;;;;;;;4.07;1.55;;;11.20;81.10;;;;;;5009823;28;20056;-88
2021/05/22 07:22:40;;;;;;;3.50;1.20;;;11.20;81.20;;;;;;5031235;28;20421;-88
2021/05/22 07:25:07;;;;;;;3.30;1.35;;;11.20;81.10;;;;;;5029214;28;20124;-88
2021/05/22 07:27:36;;;;;;;3.30;1.35;;;11.20;81.40;;;;;;5008317;28;20116;-88
2021/05/22 07:30:14;;;;;;;2.45;1.15;;;11.20;81.30;;;;;;5022974;28;20053;-88
2021/05/22 07:32:39;;;;;;;5.43;1.75;;;11.20;81.20;;;;;;5007133;28;20111;-89
2021/05/22 07:35:07;;;;;;;5.22;1.70;;;11.30;81.10;;;;;;5010743;28;20017;-87
2021/05/22 07:37:33;;;;;;;3.50;1.48;;;11.20;81.10;;;;;;5029420;28;20048;-86
2021/05/22 07:39:59;;;;;;;4.43;1.65;;;11.20;81.20;;;;;;5026939;28;20022;-88
2021/05/22 07:42:26;;;;;;;6.47;1.77;;;11.30;81.30;;;;;;5028863;28;20049;-86
2021/05/22 07:45:02;;;;;;;3.83;1.40;;;11.20;81.50;;;;;;5001049;28;20506;-87
2021/05/22 07:47:27;;;;;;;4.10;1.45;;;11.20;81.60;;;;;;5000794;28;20477;-86
2021/05/22 07:49:53;;;;;;;2.45;1.40;;;11.20;81.30;;;;;;5005407;28;20116;-86
2021/05/22 07:52:20;;;;;;;3.58;1.30;;;11.30;81.30;;;;;;5003999;28;20038;-86
2021/05/22 07:54:47;;;;;;;4.60;1.60;;;11.30;81.30;;;;;;5017356;28;20097;-86
2021/05/22 07:57:15;;;;;;;3.83;1.70;;;11.30;81.40;;;;;;5009153;28;20030;-83
2021/05/22 07:59:41;;;;;;;2.13;1.13;;;11.30;81.50;;;;;;5009172;28;20036;-85
2021/05/22 08:02:07;;;;;;;4.38;1.42;;;11.30;81.40;;;;;;5024922;28;20025;-86
2021/05/22 08:04:33;;;;;;;3.15;1.40;;;11.40;81.50;;;;;;5027858;28;20017;-85
2021/05/22 08:06:59;;;;;;;2.67;1.23;;;11.40;81.70;;;;;;5005350;28;20029;-88
2021/05/22 08:09:25;;;;;;;3.53;1.50;;;11.40;81.50;;;;;;5029897;28;20030;-87
2021/05/22 08:11:51;;;;;;;3.50;1.50;;;11.40;81.50;;;;;;5026286;28;20033;-87
2021/05/22 08:14:17;;;;;;;2.90;1.33;;;11.40;81.80;;;;;;4995337;28;20109;-87
2021/05/22 08:16:43;;;;;;;2.45;1.25;;;11.40;81.70;;;;;;5009965;28;20095;-87
2021/05/22 08:19:11;;;;;;;3.25;1.30;;;11.40;81.60;;;;;;5000788;28;20029;-86
2021/05/22 08:21:37;;;;;;;2.55;1.40;;;11.40;81.80;;;;;;5007123;28;20034;-85
2021/05/22 08:24:03;;;;;;;2.17;1.10;;;11.40;81.80;;;;;;5002297;28;20033;-87
2021/05/22 08:26:29;;;;;;;2.70;1.25;;;11.40;81.80;;;;;;5019943;28;20034;-87
2021/05/22 08:28:54;;;;;;;3.25;1.38;;;11.40;82.10;;;;;;5001963;28;20033;-87
2021/05/22 08:31:21;;;;;;;2.22;1.23;;;11.40;82.10;;;;;;5021023;28;20108;-86
2021/05/22 08:33:48;;;;;;;2.28;1.10;;;11.40;82.10;;;;;;5029082;28;20415;-87
2021/05/22 08:36:13;;;;;;;2.92;1.00;;;11.40;82.10;;;;;;5016122;28;20472;-91
2021/05/22 08:38:39;;;;;;;2.45;1.60;;;11.50;82.10;;;;;;5017014;28;20108;-91
2021/05/22 08:41:06;;;;;;;2.13;1.10;;;11.40;82.20;;;;;;5027571;28;20079;-92
2021/05/22 08:43:32;;;;;;;2.50;1.35;;;11.50;82.30;;;;;;5014516;28;20509;-92
2021/05/22 08:45:58;;;;;;;2.42;1.40;;;11.50;82.60;;;;;;5031694;28;20056;-92
2021/05/22 08:48:24;;;;;;;1.63;0.88;;;11.40;82.50;;;;;;5008040;28;20032;-91
2021/05/22 08:50:50;;;;;;;1.10;1.08;;;11.50;82.50;;;;;;5011940;28;20492;-92
2021/05/22 08:53:16;;;;;;;2.05;1.42;;;11.50;82.70;;;;;;5012845;28;20030;-90
2021/05/22 08:55:42;;;;;;;2.97;1.55;;;11.50;82.90;;;;;;4997419;28;20050;-93
2021/05/22 08:58:08;;;;;;;1.73;0.93;;;11.50;82.90;;;;;;5003802;28;20018;-92
2021/05/22 09:00:39;;;;;;;2.13;1.33;;;11.50;82.90;;;;;;5033046;28;20045;-87
2021/05/22 09:03:07;;;;;;;2.47;1.50;;;11.60;82.80;;;;;;5015092;28;20029;-91
2021/05/22 09:05:34;;;;;;;2.85;1.75;;;11.60;82.80;;;;;;5026948;28;20087;-90
2021/05/22 09:08:02;;;;;;;1.73;1.30;;;11.60;82.90;;;;;;5029107;28;20162;-91
2021/05/22 09:10:40;;;;;;;2.53;1.20;;;11.50;83.50;;;;;;5033412;28;20041;-91
2021/05/22 09:13:11;;;;;;;1.60;1.00;;;11.50;82.90;;;;;;5015103;28;20349;-91
2021/05/22 09:15:39;;;;;;;3.50;2.00;;;11.60;83.00;;;;;;5012065;28;20026;-91
2021/05/22 09:18:09;;;;;;;2.38;1.50;;;11.60;83.00;;;;;;5006221;28;20025;-91
2021/05/22 09:20:51;;;;;;;3.88;1.60;;;11.60;83.00;;;;;;5028161;28;20108;-93
2021/05/22 09:23:19;;;;;;;1.55;1.30;;;11.60;83.10;;;;;;5009978;28;20036;-92
2021/05/22 09:25:47;;;;;;;2.85;1.60;;;11.60;83.10;;;;;;5013970;28;20022;-90
2021/05/22 09:28:15;;;;;;;3.70;1.60;;;11.70;83.10;;;;;;5027934;28;20041;-92
2021/05/22 09:30:41;;;;;;;2.95;1.80;;;11.70;83.10;;;;;;5007884;28;20048;-91
2021/05/22 09:33:17;;;;;;;2.92;1.77;;;11.70;83.00;;;;;;5026872;28;20026;-91
2021/05/22 09:35:52;;;;;;;2.45;1.40;;;11.70;83.10;;;;;;5021095;28;20029;-93
2021/05/22 09:38:51;;;;;;;3.47;1.70;;;11.80;83.10;;;;;;5016486;28;20029;-91
2021/05/22 09:41:23;;;;;;;2.65;2.10;;;11.80;83.10;;;;;;4985819;28;20064;-91
2021/05/22 09:44:09;;;;;;;2.53;1.60;;;11.80;83.00;;;;;;5012359;28;20177;-91
2021/05/22 09:46:44;;;;;;;3.15;2.22;;;11.80;82.90;;;;;;5016863;28;20028;-93
2021/05/22 09:49:33;;;;;;;2.65;1.88;;;11.90;82.80;;;;;;5008158;28;20171;-88
2021/05/22 09:52:13;;;;;;;3.22;1.95;;;11.90;82.90;;;;;;5025576;28;20034;-87
2021/05/22 09:54:43;;;;;;;3.60;1.80;;;12.00;82.90;;;;;;5022990;28;20059;-86
2021/05/22 09:57:12;;;;;;;2.35;1.60;;;12.00;82.90;;;;;;5006014;28;20032;-87
2021/05/22 09:59:37;;;;;;;1.83;1.58;;;12.00;82.70;;;;;;5008659;28;20033;-88
2021/05/22 10:02:03;;;;;;;4.75;1.88;;;12.00;82.80;;;;;;5026050;28;20021;-85
2021/05/22 10:04:29;;;;;;;3.75;2.00;;;12.00;82.70;;;;;;5008545;28;20556;-87
2021/05/22 10:06:58;;;;;;;5.15;2.63;;;12.00;82.90;;;;;;5003193;28;20057;-87
2021/05/22 10:09:25;;;;;;;1.90;1.70;;;12.00;83.10;;;;;;5021648;28;20061;-86
2021/05/22 10:12:10;;;;;;;3.22;2.33;;;12.00;83.10;;;;;;5007416;28;20524;-87
2021/05/22 10:14:39;;;;;;;2.13;1.73;;;12.00;83.10;;;;;;5023962;28;20049;-87
2021/05/22 10:17:06;;;;;;;2.65;1.80;;;12.00;83.20;;;;;;5027119;28;20599;-87
2021/05/22 10:19:34;;;;;;;2.90;1.95;;;12.00;83.20;;;;;;5026141;28;20037;-85
2021/05/22 10:22:02;;;;;;;3.67;2.60;;;12.00;83.20;;;;;;5026648;28;20052;-91
2021/05/22 10:24:28;;;;;;;2.92;1.92;;;12.00;83.10;;;;;;5029324;28;20107;-89
2021/05/22 10:26:55;;;;;;;3.08;2.10;;;12.10;83.00;;;;;;5026534;28;20029;-87
2021/05/22 10:29:22;;;;;;;2.95;2.20;;;12.20;82.90;;;;;;5029619;28;20566;-88
2021/05/22 10:31:48;;;;;;;2.03;1.73;;;12.10;82.80;;;;;;5029521;28;20064;-88
2021/05/22 10:34:18;;;;;;;3.10;1.65;;;12.20;82.80;;;;;;5013517;28;20059;-88
2021/05/22 10:36:56;;;;;;;3.92;2.80;;;12.20;82.70;;;;;;4996953;28;20076;-87
2021/05/22 10:39:41;;;;;;;3.33;2.00;;;12.20;82.90;;;;;;5031111;28;20064;-88
2021/05/22 10:42:18;;;;;;;3.53;2.22;;;12.20;82.90;;;;;;5011278;28;20056;-88
2021/05/22 10:44:43;;;;;;;3.05;2.03;;;12.20;82.90;;;;;;5025081;28;20049;-88
2021/05/22 10:47:14;;;;;;;1.90;1.70;;;12.20;82.70;;;;;;5031464;28;20111;-87
2021/05/22 10:49:51;;;;;;;2.95;1.95;;;12.20;82.80;;;;;;5014978;28;20072;-88
2021/05/22 10:52:32;;;;;;;1.90;1.70;;;12.30;82.80;;;;;;5029443;28;20040;-89
2021/05/22 10:55:07;;;;;;;2.85;2.65;;;12.30;82.60;;;;;;5036849;28;20040;-89
2021/05/22 10:57:57;;;;;;;2.70;2.20;;;12.30;82.70;;;;;;5030808;28;20037;-88
2021/05/22 11:00:26;;;;;;;17.27;13.60;;;12.30;82.70;;;;;;5017339;28;20018;-88
2021/05/22 11:02:58;;;;;;;5.10;3.50;;;12.30;82.90;;;;;;5031958;28;20017;-87
2021/05/22 11:08:04;;;;;;;3.53;2.92;;;12.30;82.90;;;;;;5029671;28;20106;-87
2021/05/22 11:10:48;;;;;;;3.15;2.20;;;12.30;83.10;;;;;;5032992;28;20033;-89
2021/05/22 11:13:20;;;;;;;2.85;2.50;;;12.30;83.00;;;;;;5014887;28;20767;-88
2021/05/22 11:15:50;;;;;;;2.70;1.90;;;12.30;83.20;;;;;;5005401;28;20040;-86
2021/05/22 11:18:19;;;;;;;3.20;2.40;;;12.40;83.10;;;;;;5009997;28;20323;-88
2021/05/22 11:21:08;;;;;;;3.10;2.40;;;12.40;83.40;;;;;;5022751;28;20033;-87
2021/05/22 11:24:02;;;;;;;2.83;1.90;;;12.30;83.60;;;;;;5027504;28;20036;-88
2021/05/22 11:26:56;;;;;;;2.78;2.20;;;12.40;83.60;;;;;;5027020;28;20094;-86
2021/05/22 11:29:44;;;;;;;2.45;2.20;;;12.40;83.60;;;;;;5018519;28;20488;-84
2021/05/22 11:32:45;;;;;;;2.08;1.88;;;12.40;83.60;;;;;;5016136;28;20155;-85
2021/05/22 11:35:26;;;;;;;1.65;1.42;;;12.40;83.50;;;;;;5004900;28;20029;-85
2021/05/22 11:38:10;;;;;;;6.50;3.42;;;12.40;83.50;;;;;;5025298;28;20040;-85
2021/05/22 11:40:36;;;;;;;3.10;2.60;;;12.50;83.30;;;;;;5027372;28;20445;-86
2021/05/22 11:45:45;;;;;;;1.65;1.20;;;12.30;83.10;;;;;;5028321;28;20084;-87
2021/05/22 11:48:43;;;;;;;2.22;1.08;;;12.30;83.20;;;;;;5024035;28;20025;-86
2021/05/22 11:51:28;;;;;;;1.80;1.17;;;12.30;83.10;;;;;;5005458;28;20053;-84
2021/05/22 11:53:58;;;;;;;1.33;1.23;;;12.40;82.90;;;;;;5009849;28;20163;-86
2021/05/22 11:56:25;;;;;;;0.90;0.90;;;12.50;82.60;;;;;;5012706;28;20029;-89
2021/05/22 11:58:58;;;;;;;1.48;1.10;;;12.60;82.30;;;;;;5012705;28;20033;-91
2021/05/22 12:01:26;;;;;;;1.08;1.00;;;12.70;81.90;;;;;;5027044;28;20425;-90
2021/05/22 12:04:00;;;;;;;1.50;1.30;;;12.90;82.30;;;;;;5017749;28;20040;-89
2021/05/22 12:06:30;;;;;;;1.65;1.10;;;12.90;81.40;;;;;;5011021;28;20047;-89
2021/05/22 12:09:01;;;;;;;2.08;1.30;;;13.00;81.30;;;;;;5013459;28;20107;-89
2021/05/22 12:11:31;;;;;;;2.05;1.80;;;13.10;81.10;;;;;;5006408;28;20034;-89
2021/05/22 12:13:59;;;;;;;3.05;1.75;;;13.10;81.00;;;;;;5008163;28;20490;-88
2021/05/22 12:16:26;;;;;;;3.58;2.20;;;13.00;81.00;;;;;;5012326;28;20034;-85
2021/05/22 12:18:53;;;;;;;2.17;1.70;;;13.10;81.10;;;;;;5007828;28;20030;-90
2021/05/22 12:21:30;;;;;;;4.50;1.90;;;13.20;81.10;;;;;;5024573;28;20033;-88
2021/05/22 12:24:10;;;;;;;2.75;1.75;;;13.30;81.10;;;;;;5005868;28;20033;-88
2021/05/22 12:26:38;;;;;;;2.92;1.83;;;13.30;80.70;;;;;;5019165;28;20037;-88
2021/05/22 12:29:05;;;;;;;2.63;2.10;;;13.40;80.60;;;;;;5018186;28;20032;-89
2021/05/22 12:31:33;;;;;;;3.45;2.40;;;13.40;80.50;;;;;;5009033;28;20164;-88
2021/05/22 12:34:02;;;;;;;3.58;1.92;;;13.40;80.40;;;;;;5008328;28;20037;-86
2021/05/22 12:36:28;;;;;;;3.67;2.08;;;13.40;80.30;;;;;;5006709;28;20468;-89
2021/05/22 12:38:55;;;;;;;2.58;2.10;;;13.40;80.20;;;;;;5009241;28;20381;-88
2021/05/22 12:41:33;;;;;;;1.83;1.70;;;13.50;80.20;;;;;;5007028;28;20041;-88
2021/05/22 12:44:00;;;;;;;2.63;2.30;;;13.60;80.00;;;;;;5008485;28;20017;-88
2021/05/22 12:46:35;;;;;;;3.47;2.35;;;13.60;79.90;;;;;;5010133;28;20021;-88
2021/05/22 12:49:15;;;;;;;3.38;2.30;;;13.50;79.80;;;;;;5018653;28;20175;-89
2021/05/22 12:51:43;;;;;;;3.55;2.78;;;13.50;79.90;;;;;;5002738;28;20045;-88
2021/05/22 12:54:29;;;;;;;4.68;3.40;;;13.40;79.80;;;;;;5011181;28;20285;-90
2021/05/22 12:57:14;;;;;;;4.35;2.88;;;13.40;79.80;;;;;;5005592;28;20033;-91
2021/05/22 12:59:45;;;;;;;2.30;2.10;;;13.30;79.70;;;;;;5031096;28;20025;-90
2021/05/22 13:02:18;;;;;;;6.28;2.80;;;13.40;79.60;;;;;;5029572;28;20056;-93
2021/05/22 13:04:48;;;;;;;3.10;2.50;;;13.50;79.40;;;;;;5026838;28;20030;-94